Time;durP1;ratioP1;P1;durP2;ratioP2;P2;SDS_P1;SDS_P2;PMS_P1;PMS_P2;Temp;Humidity;BMP_temperature;BMP_pressure;BME280_temperature;BME280_humidity;BME280_pressure;Samples;Min_cycle;Max_cycle;Signal;HPM_P1;HPM_P2
2022/01/03 00:01:34;;;;;;;2.42;0.60;;;8.10;98.90;;;;;;4947906;28;20062;-67
2022/01/03 00:04:00;;;;;;;0.22;0.10;;;8.10;99.10;;;;;;4951133;28;20062;-67
2022/01/03 00:06:26;;;;;;;4.47;0.80;;;8.10;99.20;;;;;;4947988;29;20048;-66
2022/01/03 00:08:52;;;;;;;3.92;0.40;;;8.10;99.20;;;;;;4934173;28;20055;-67
2022/01/03 00:11:20;;;;;;;0.35;0.15;;;8.20;99.50;;;;;;4949697;28;20130;-67
2022/01/03 00:13:48;;;;;;;1.17;0.32;;;8.20;99.80;;;;;;4932858;29;20471;-67
2022/01/03 00:16:14;;;;;;;4.05;0.45;;;8.20;99.90;;;;;;4947243;28;20043;-67
2022/01/03 00:18:40;;;;;;;6.47;0.38;;;8.20;99.90;;;;;;4932899;29;20084;-67
2022/01/03 00:21:14;;;;;;;5.05;0.50;;;8.20;99.90;;;;;;4932880;28;20035;-66
2022/01/03 00:23:56;;;;;;;4.65;0.75;;;8.20;99.90;;;;;;4930670;29;20114;-67
2022/01/03 00:26:26;;;;;;;4.07;0.40;;;8.20;99.90;;;;;;4948781;28;20070;-67
2022/01/03 00:29:04;;;;;;;6.82;0.60;;;8.20;99.90;;;;;;4950764;28;20106;-67
2022/01/03 00:31:39;;;;;;;3.55;1.52;;;8.30;99.90;;;;;;4945574;28;20043;-67
2022/01/03 00:34:07;;;;;;;3.30;0.80;;;8.30;99.90;;;;;;4931678;29;20045;-67
2022/01/03 00:36:33;;;;;;;2.55;0.40;;;8.30;99.90;;;;;;4929467;29;20047;-67
2022/01/03 00:38:59;;;;;;;2.88;0.55;;;8.40;99.90;;;;;;4949932;29;20164;-67
2022/01/03 00:41:25;;;;;;;2.60;0.98;;;8.40;99.90;;;;;;4948450;29;20546;-67
2022/01/03 00:43:53;;;;;;;4.10;0.70;;;8.50;99.90;;;;;;4950800;29;20051;-66
2022/01/03 00:46:18;;;;;;;7.72;1.05;;;8.50;99.90;;;;;;4930060;29;20071;-66
2022/01/03 00:48:44;;;;;;;6.15;0.80;;;8.60;99.90;;;;;;4949805;29;20085;-67
2022/01/03 00:51:13;;;;;;;3.45;0.60;;;8.70;99.90;;;;;;4931302;29;20109;-67
2022/01/03 00:53:40;;;;;;;3.83;0.70;;;8.70;99.90;;;;;;4931583;29;20505;-67
2022/01/03 00:56:23;;;;;;;6.78;0.98;;;8.70;99.90;;;;;;4939522;29;20110;-66
2022/01/03 00:58:53;;;;;;;4.38;1.17;;;8.80;99.90;;;;;;4947713;29;20040;-66
2022/01/03 01:01:21;;;;;;;3.15;0.75;;;8.80;99.90;;;;;;4914498;29;20513;-67
2022/01/03 01:03:51;;;;;;;3.55;0.82;;;8.80;99.90;;;;;;4948938;29;20083;-66
2022/01/03 01:06:20;;;;;;;3.67;0.80;;;8.90;99.90;;;;;;4931913;29;20066;-67
2022/01/03 01:08:53;;;;;;;8.88;1.10;;;9.00;99.90;;;;;;4933107;29;20035;-67
2022/01/03 01:11:24;;;;;;;4.43;0.90;;;9.00;99.90;;;;;;4949075;29;20050;-67
2022/01/03 01:13:50;;;;;;;12.10;1.58;;;9.00;99.90;;;;;;4949409;29;20066;-66
2022/01/03 01:16:17;;;;;;;4.10;0.95;;;9.00;99.90;;;;;;4931596;29;20437;-67
2022/01/03 01:18:45;;;;;;;2.67;0.93;;;9.10;99.80;;;;;;4932526;29;20079;-67
2022/01/03 01:21:10;;;;;;;1.70;0.55;;;9.10;99.40;;;;;;4932258;29;20035;-66
2022/01/03 01:23:40;;;;;;;4.50;0.80;;;9.20;99.00;;;;;;4931731;29;20039;-67
2022/01/03 01:28:50;;;;;;;2.15;0.57;;;9.20;98.90;;;;;;4947672;29;20414;-66
2022/01/03 01:31:19;;;;;;;9.52;1.52;;;9.20;98.90;;;;;;4932005;29;20055;-67
2022/01/03 01:33:46;;;;;;;13.27;2.13;;;9.20;98.80;;;;;;4948204;29;20105;-66
2022/01/03 01:36:14;;;;;;;14.75;2.38;;;9.20;98.80;;;;;;4931344;29;20129;-67
2022/01/03 01:38:42;;;;;;;10.70;1.40;;;9.20;99.00;;;;;;4950089;29;20090;-66
2022/01/03 01:41:09;;;;;;;12.38;1.60;;;9.20;98.80;;;;;;4930964;29;20150;-66
2022/01/03 01:43:43;;;;;;;9.98;1.70;;;9.20;98.50;;;;;;4932341;29;20098;-66
2022/01/03 01:46:21;;;;;;;5.10;1.00;;;9.20;98.50;;;;;;4946879;29;20165;-67
2022/01/03 01:48:48;;;;;;;20.25;3.13;;;9.20;98.40;;;;;;4932296;29;20043;-67
2022/01/03 01:51:18;;;;;;;10.98;1.30;;;9.20;98.50;;;;;;4949406;29;20077;-66
2022/01/03 01:53:57;;;;;;;18.80;2.28;;;9.20;98.20;;;;;;4947983;29;20126;-67
2022/01/03 01:56:25;;;;;;;18.55;2.63;;;9.20;98.10;;;;;;4931961;29;20098;-67
2022/01/03 01:59:01;;;;;;;4.80;0.93;;;9.20;98.10;;;;;;4930724;29;20051;-66
2022/01/03 02:01:45;;;;;;;7.38;1.00;;;9.20;98.00;;;;;;4949310;29;20074;-66
2022/01/03 02:04:33;;;;;;;10.48;1.77;;;9.30;98.20;;;;;;4948261;29;20125;-67
2022/01/03 02:07:17;;;;;;;9.48;2.15;;;9.30;98.20;;;;;;4930689;29;20090;-67
2022/01/03 02:09:53;;;;;;;5.47;1.13;;;9.20;97.80;;;;;;4916114;29;20506;-66
2022/01/03 02:12:25;;;;;;;7.45;1.52;;;9.30;97.50;;;;;;4930792;29;20398;-67
2022/01/03 02:14:53;;;;;;;6.25;1.23;;;9.30;97.60;;;;;;4948295;28;20409;-66
2022/01/03 02:17:19;;;;;;;9.32;1.80;;;9.30;97.60;;;;;;4949017;29;20494;-67
2022/01/03 02:20:10;;;;;;;19.30;3.17;;;9.30;97.60;;;;;;4930663;29;20134;-67
2022/01/03 02:22:40;;;;;;;25.63;3.20;;;9.20;97.80;;;;;;4931797;29;20089;-67
2022/01/03 02:25:07;;;;;;;16.55;2.45;;;9.20;97.90;;;;;;4947619;29;20051;-66
2022/01/03 02:27:33;;;;;;;10.77;1.95;;;9.20;98.00;;;;;;4946632;28;20082;-66
2022/01/03 02:30:00;;;;;;;13.93;1.27;;;9.20;98.00;;;;;;4948268;28;20054;-66
2022/01/03 02:32:26;;;;;;;17.05;2.42;;;9.20;98.10;;;;;;4958061;28;20043;-67
2022/01/03 02:34:51;;;;;;;27.65;3.55;;;9.20;98.20;;;;;;4958627;28;20054;-66
2022/01/03 02:37:17;;;;;;;22.83;2.50;;;9.20;98.00;;;;;;4922466;29;20083;-66
2022/01/03 02:39:44;;;;;;;9.70;2.08;;;9.20;98.00;;;;;;4948499;29;20051;-67
2022/01/03 02:42:10;;;;;;;14.15;1.00;;;9.20;98.00;;;;;;4929925;29;20054;-67
2022/01/03 02:44:36;;;;;;;24.63;3.92;;;9.30;97.40;;;;;;4947316;28;20712;-66
2022/01/03 02:47:02;;;;;;;6.35;1.00;;;9.30;97.40;;;;;;4948367;29;20097;-66
2022/01/03 02:49:28;;;;;;;16.90;2.85;;;9.40;97.20;;;;;;4930376;29;20126;-66
2022/01/03 02:51:54;;;;;;;19.33;2.85;;;9.40;97.00;;;;;;4949115;29;20053;-67
2022/01/03 02:54:19;;;;;;;17.63;2.10;;;9.40;96.90;;;;;;4928915;29;20121;-67
2022/01/03 02:56:45;;;;;;;12.00;1.52;;;9.40;96.90;;;;;;4947834;29;20046;-66
2022/01/03 02:59:16;;;;;;;8.30;1.35;;;9.40;97.00;;;;;;4930232;29;20503;-67
2022/01/03 03:01:43;;;;;;;11.52;2.05;;;9.40;97.00;;;;;;4931433;29;20083;-67
2022/01/03 03:04:09;;;;;;;4.85;1.38;;;9.40;96.90;;;;;;4930450;29;20082;-66
2022/01/03 03:06:35;;;;;;;6.43;0.95;;;9.40;96.70;;;;;;4929893;29;20465;-67
2022/01/03 03:09:05;;;;;;;22.00;4.50;;;9.50;96.70;;;;;;4915593;29;20075;-66
2022/01/03 03:11:36;;;;;;;7.50;1.55;;;9.40;97.00;;;;;;4944877;28;20043;-66
2022/01/03 03:14:03;;;;;;;7.47;1.58;;;9.40;96.80;;;;;;4948650;29;20047;-67
2022/01/03 03:16:29;;;;;;;9.00;2.05;;;9.40;96.90;;;;;;4945496;29;20047;-67
2022/01/03 03:18:55;;;;;;;15.27;2.88;;;9.40;96.70;;;;;;4931136;29;20035;-67
2022/01/03 03:21:21;;;;;;;6.30;1.92;;;9.40;96.30;;;;;;4929644;29;20040;-67
2022/01/03 03:23:47;;;;;;;9.52;1.30;;;9.40;96.40;;;;;;4931458;29;20145;-66
2022/01/03 03:26:13;;;;;;;26.02;4.40;;;9.40;96.10;;;;;;4951289;28;20572;-66
2022/01/03 03:28:39;;;;;;;19.90;2.47;;;9.40;96.50;;;;;;4933546;29;20126;-67
2022/01/03 03:31:05;;;;;;;11.77;1.67;;;9.40;95.90;;;;;;4950705;29;20361;-67
2022/01/03 03:33:32;;;;;;;13.38;2.35;;;9.40;96.20;;;;;;4949017;29;20039;-67
2022/01/03 03:36:01;;;;;;;7.47;1.88;;;9.40;96.20;;;;;;4934965;29;20071;-67
2022/01/03 03:38:27;;;;;;;17.30;2.63;;;9.40;96.30;;;;;;4949715;29;20047;-66
2022/01/03 03:40:58;;;;;;;9.52;1.55;;;9.40;96.00;;;;;;4934412;29;20058;-66
2022/01/03 03:43:24;;;;;;;6.82;1.75;;;9.40;95.60;;;;;;4951541;29;20050;-66
2022/01/03 03:45:50;;;;;;;16.90;1.85;;;9.40;95.50;;;;;;4950734;29;20083;-67
2022/01/03 03:48:18;;;;;;;8.38;1.90;;;9.30;95.60;;;;;;4935023;29;20071;-67
2022/01/03 03:50:44;;;;;;;19.20;1.92;;;9.30;95.60;;;;;;4949231;29;20182;-66
2022/01/03 03:53:11;;;;;;;18.60;2.55;;;9.30;95.90;;;;;;4951737;29;20525;-67
2022/01/03 03:55:37;;;;;;;24.80;3.72;;;9.20;96.10;;;;;;4932928;29;20050;-67
2022/01/03 03:58:04;;;;;;;18.55;2.85;;;9.20;96.30;;;;;;4934735;29;20043;-66
2022/01/03 04:00:31;;;;;;;32.72;4.80;;;9.20;96.40;;;;;;4933329;29;20078;-67
2022/01/03 04:02:56;;;;;;;27.13;3.50;;;9.10;96.40;;;;;;4950726;29;20087;-66
2022/01/03 04:05:22;;;;;;;24.27;4.30;;;9.10;96.60;;;;;;4951475;29;20078;-67
2022/01/03 04:07:48;;;;;;;6.40;1.48;;;9.00;96.80;;;;;;4933324;29;20565;-67
2022/01/03 04:10:15;;;;;;;14.23;2.67;;;9.00;96.80;;;;;;4951672;29;20505;-66
2022/01/03 04:12:42;;;;;;;11.10;2.60;;;9.00;96.60;;;;;;4931720;29;20557;-67
2022/01/03 04:15:09;;;;;;;22.98;4.03;;;9.00;96.30;;;;;;4934364;29;20043;-67
2022/01/03 04:17:34;;;;;;;11.23;1.80;;;8.90;96.50;;;;;;4948825;29;20053;-66
2022/01/03 04:20:01;;;;;;;18.52;3.60;;;8.90;96.60;;;;;;4934067;29;20054;-66
2022/01/03 04:22:26;;;;;;;15.80;3.30;;;8.90;96.50;;;;;;4949705;29;20066;-66
2022/01/03 04:24:52;;;;;;;11.30;1.88;;;8.90;96.90;;;;;;4932507;29;20043;-66
2022/01/03 04:27:18;;;;;;;30.63;4.30;;;9.00;96.60;;;;;;4934208;29;20073;-67
2022/01/03 04:29:44;;;;;;;26.40;3.45;;;9.00;96.70;;;;;;4949148;29;20057;-67
2022/01/03 04:32:10;;;;;;;8.93;2.65;;;9.00;96.30;;;;;;4950300;29;20058;-67
2022/01/03 04:34:35;;;;;;;21.17;3.42;;;9.00;96.40;;;;;;4948115;29;20050;-66
2022/01/03 04:37:01;;;;;;;19.52;2.92;;;9.00;96.30;;;;;;4930355;29;20051;-67
2022/01/03 04:39:27;;;;;;;15.68;2.78;;;9.00;96.30;;;;;;4950427;29;20063;-67
2022/01/03 04:41:53;;;;;;;28.65;3.45;;;9.00;96.30;;;;;;4949952;29;20035;-67
2022/01/03 04:44:19;;;;;;;16.70;1.88;;;8.90;96.60;;;;;;4951530;29;20510;-67
2022/01/03 04:46:45;;;;;;;19.92;3.28;;;8.90;96.70;;;;;;4948822;29;20093;-67
2022/01/03 04:49:11;;;;;;;11.15;1.73;;;8.90;96.70;;;;;;4950212;29;20398;-67
2022/01/03 04:51:37;;;;;;;31.17;4.85;;;8.90;97.00;;;;;;4946930;29;20058;-67
2022/01/03 04:54:03;;;;;;;10.02;1.67;;;8.90;97.00;;;;;;4950915;29;20505;-66
2022/01/03 04:56:29;;;;;;;4.18;0.98;;;9.00;96.40;;;;;;4931446;29;20509;-66
2022/01/03 04:58:56;;;;;;;21.10;3.72;;;9.00;96.20;;;;;;4932693;29;20047;-67
2022/01/03 05:01:23;;;;;;;29.65;3.20;;;9.00;96.60;;;;;;4932869;29;20043;-67
2022/01/03 05:03:48;;;;;;;31.83;4.38;;;9.00;96.40;;;;;;4947493;29;20047;-67
2022/01/03 05:06:16;;;;;;;21.33;3.72;;;9.00;96.50;;;;;;4949165;29;20053;-66
2022/01/03 05:08:43;;;;;;;30.98;6.38;;;9.00;96.40;;;;;;4931013;29;20185;-67
2022/01/03 05:11:08;;;;;;;8.63;1.83;;;9.00;96.70;;;;;;4950844;29;20078;-67
2022/01/03 05:13:35;;;;;;;30.90;4.32;;;9.00;96.40;;;;;;4949117;29;20047;-67
2022/01/03 05:16:01;;;;;;;19.42;2.47;;;9.00;96.60;;;;;;4930205;29;20521;-67
2022/01/03 05:18:27;;;;;;;11.35;2.28;;;9.00;96.50;;;;;;4932810;29;20035;-67
2022/01/03 05:20:53;;;;;;;24.08;2.60;;;9.10;96.40;;;;;;4931450;29;20055;-67
2022/01/03 05:23:19;;;;;;;20.83;2.08;;;9.10;96.20;;;;;;4950625;29;20058;-66
2022/01/03 05:25:45;;;;;;;20.95;2.45;;;9.10;96.10;;;;;;4930806;29;20053;-66
2022/01/03 05:28:11;;;;;;;13.48;3.13;;;9.10;96.30;;;;;;4933050;29;20401;-67
2022/01/03 05:30:37;;;;;;;17.27;3.08;;;9.10;96.20;;;;;;4915086;29;20050;-66
2022/01/03 05:33:03;;;;;;;25.77;3.45;;;9.10;96.30;;;;;;4948671;29;20099;-67
2022/01/03 05:35:29;;;;;;;7.20;2.08;;;9.10;96.30;;;;;;4948182;29;20059;-67
2022/01/03 05:37:55;;;;;;;29.30;3.67;;;9.00;96.40;;;;;;4930819;29;20090;-67
2022/01/03 05:40:23;;;;;;;8.77;1.83;;;9.10;96.20;;;;;;4916695;29;20055;-67
2022/01/03 05:42:49;;;;;;;21.42;3.22;;;9.10;96.10;;;;;;4914794;29;20055;-67
2022/01/03 05:45:15;;;;;;;24.10;3.85;;;9.00;96.30;;;;;;4932643;29;20375;-66
2022/01/03 05:47:44;;;;;;;11.93;2.42;;;9.10;96.20;;;;;;4929739;29;20138;-67
2022/01/03 05:50:10;;;;;;;21.83;3.88;;;9.10;95.90;;;;;;4950096;29;20035;-67
2022/01/03 05:52:36;;;;;;;25.55;4.07;;;9.10;96.20;;;;;;4948790;29;20054;-67
2022/01/03 05:55:02;;;;;;;16.30;2.50;;;9.10;95.90;;;;;;4931735;29;20066;-67
2022/01/03 05:57:28;;;;;;;11.48;2.42;;;9.10;96.10;;;;;;4932346;29;20049;-67
2022/01/03 05:59:54;;;;;;;23.50;4.25;;;9.10;95.90;;;;;;4914957;29;20055;-67
2022/01/03 06:02:20;;;;;;;22.45;3.15;;;9.20;95.80;;;;;;4948719;29;20498;-67
2022/01/03 06:07:17;;;;;;;22.85;3.33;;;9.10;96.00;;;;;;4944636;29;20092;-67
2022/01/03 06:09:43;;;;;;;20.80;4.00;;;9.00;96.20;;;;;;4933794;29;20047;-67
2022/01/03 06:12:09;;;;;;;24.33;4.65;;;8.90;96.30;;;;;;4930628;29;20050;-67
2022/01/03 06:14:36;;;;;;;6.35;1.88;;;8.90;96.40;;;;;;4931713;29;20053;-67
2022/01/03 06:17:03;;;;;;;31.10;4.72;;;8.90;96.30;;;;;;4940847;29;20090;-67
2022/01/03 06:19:29;;;;;;;26.15;3.65;;;8.90;96.30;;;;;;4936508;29;20102;-67
2022/01/03 06:21:56;;;;;;;30.23;4.30;;;8.90;96.30;;;;;;4943064;29;20166;-67
2022/01/03 06:24:22;;;;;;;27.95;4.25;;;8.90;96.30;;;;;;4962532;28;20584;-67
2022/01/03 06:26:49;;;;;;;39.00;4.72;;;8.90;96.40;;;;;;4944007;29;20126;-67
2022/01/03 06:29:16;;;;;;;17.63;3.30;;;8.90;96.60;;;;;;4953002;28;20094;-67
2022/01/03 06:31:42;;;;;;;26.00;3.88;;;8.80;96.80;;;;;;4946965;28;20039;-66
2022/01/03 06:34:08;;;;;;;40.88;5.40;;;8.90;96.80;;;;;;4934534;29;20047;-67
2022/01/03 06:36:34;;;;;;;24.17;3.25;;;8.90;96.70;;;;;;4948352;28;20383;-67
2022/01/03 06:39:00;;;;;;;24.15;2.95;;;8.90;96.70;;;;;;4929554;29;20059;-67
2022/01/03 06:41:26;;;;;;;35.70;5.75;;;8.90;96.80;;;;;;4931089;28;20050;-67
2022/01/03 06:43:53;;;;;;;23.23;4.07;;;8.90;96.80;;;;;;4945897;29;20589;-67
2022/01/03 06:46:18;;;;;;;29.92;5.32;;;8.90;96.60;;;;;;4931345;29;20071;-67
2022/01/03 06:48:46;;;;;;;44.05;5.60;;;8.90;96.50;;;;;;4930123;29;20105;-66
2022/01/03 06:51:15;;;;;;;36.90;4.97;;;8.90;96.60;;;;;;4947921;29;20054;-66
2022/01/03 06:53:41;;;;;;;47.47;5.90;;;8.90;96.70;;;;;;4948177;29;20134;-66
2022/01/03 06:56:07;;;;;;;39.35;5.70;;;8.90;96.70;;;;;;4929762;29;20126;-67
2022/01/03 06:58:33;;;;;;;37.08;4.82;;;8.90;96.90;;;;;;4948408;29;20047;-67
2022/01/03 07:00:59;;;;;;;33.22;6.30;;;9.00;96.40;;;;;;4928426;29;20102;-67
2022/01/03 07:03:25;;;;;;;29.77;5.13;;;8.90;96.50;;;;;;4947192;29;20558;-67
2022/01/03 07:05:50;;;;;;;48.13;5.55;;;8.90;96.90;;;;;;4947333;29;20434;-66
2022/01/03 07:08:16;;;;;;;30.30;4.25;;;8.90;96.80;;;;;;4930460;29;20055;-67
2022/01/03 07:10:42;;;;;;;31.20;4.18;;;8.90;96.90;;;;;;4930198;29;20047;-67
2022/01/03 07:13:08;;;;;;;16.95;2.22;;;8.90;96.80;;;;;;4930121;29;20043;-66
2022/01/03 07:21:02;;;;;;;44.63;5.65;;;8.90;96.80;;;;;;4947158;29;20094;-67
2022/01/03 07:23:28;;;;;;;32.97;6.00;;;8.90;96.90;;;;;;4947825;29;20433;-67
2022/01/03 07:25:54;;;;;;;35.88;4.90;;;8.90;97.00;;;;;;4928839;29;20039;-66
2022/01/03 07:28:20;;;;;;;41.38;5.50;;;8.90;97.00;;;;;;4946711;29;20207;-67
2022/01/03 07:30:45;;;;;;;37.65;4.18;;;8.90;96.90;;;;;;4913632;29;20051;-67
2022/01/03 07:33:11;;;;;;;31.30;5.30;;;8.90;97.00;;;;;;4947686;29;20039;-67
2022/01/03 07:35:37;;;;;;;38.45;5.97;;;8.90;97.20;;;;;;4946861;29;20138;-67
2022/01/03 07:38:04;;;;;;;43.25;6.45;;;8.90;97.30;;;;;;4930117;29;20078;-67
2022/01/03 07:40:30;;;;;;;23.88;2.88;;;8.80;97.40;;;;;;4937577;29;20063;-67
2022/01/03 07:42:57;;;;;;;35.50;4.88;;;8.80;97.30;;;;;;4925416;29;20051;-66
2022/01/03 07:45:22;;;;;;;33.05;5.70;;;8.80;97.50;;;;;;4931208;29;20055;-67
2022/01/03 07:47:48;;;;;;;22.42;3.53;;;8.80;97.20;;;;;;4934790;29;20099;-67
2022/01/03 07:50:14;;;;;;;33.95;4.35;;;8.80;97.30;;;;;;4930319;29;20039;-67
2022/01/03 07:52:40;;;;;;;10.50;1.92;;;8.80;97.30;;;;;;4929809;29;20107;-67
2022/01/03 07:55:07;;;;;;;39.83;5.20;;;8.80;97.10;;;;;;4885548;29;20043;-66
2022/01/03 07:57:33;;;;;;;42.00;5.95;;;8.90;97.50;;;;;;4926234;29;20498;-67
2022/01/03 07:59:59;;;;;;;35.78;5.28;;;8.90;97.00;;;;;;4926354;29;20172;-67
2022/01/03 08:02:25;;;;;;;34.72;4.70;;;9.00;97.10;;;;;;4942120;29;20454;-66
2022/01/03 08:04:51;;;;;;;16.83;3.20;;;9.00;96.90;;;;;;4929236;29;20058;-67
2022/01/03 08:07:17;;;;;;;24.02;3.50;;;9.00;96.80;;;;;;4948265;29;20043;-67
2022/01/03 08:09:43;;;;;;;34.10;4.97;;;9.10;96.70;;;;;;4906281;29;20036;-67
2022/01/03 08:12:09;;;;;;;26.67;5.32;;;9.10;97.00;;;;;;4924015;29;20052;-67
2022/01/03 08:14:35;;;;;;;34.33;5.15;;;9.10;96.80;;;;;;4919675;29;20042;-66
2022/01/03 08:17:01;;;;;;;38.67;4.10;;;9.00;96.90;;;;;;4891084;29;20059;-67
2022/01/03 08:19:27;;;;;;;31.15;5.15;;;9.10;96.70;;;;;;4914070;29;20073;-67
2022/01/03 08:21:53;;;;;;;21.67;3.20;;;9.10;96.80;;;;;;4913878;29;20113;-67
2022/01/03 08:24:18;;;;;;;33.55;5.07;;;9.10;96.90;;;;;;4932131;29;20510;-67
2022/01/03 08:26:44;;;;;;;23.58;3.28;;;9.10;96.80;;;;;;4913624;29;20047;-67
2022/01/03 08:29:11;;;;;;;38.28;6.10;;;9.10;96.90;;;;;;4883358;29;20051;-67
2022/01/03 08:31:37;;;;;;;6.50;1.92;;;9.10;97.00;;;;;;4913678;29;20052;-67
2022/01/03 08:34:04;;;;;;;31.95;4.45;;;9.10;96.80;;;;;;4931667;29;20054;-67
2022/01/03 08:36:30;;;;;;;30.23;5.40;;;9.10;96.60;;;;;;4915725;29;20058;-67
2022/01/03 08:38:56;;;;;;;34.33;4.75;;;9.20;96.80;;;;;;4948549;29;20476;-66
2022/01/03 08:41:21;;;;;;;44.97;4.72;;;9.10;96.70;;;;;;4951262;29;20123;-67
2022/01/03 08:43:47;;;;;;;34.50;4.78;;;9.20;96.60;;;;;;4949759;29;20122;-67
2022/01/03 08:46:13;;;;;;;35.53;5.22;;;9.20;96.40;;;;;;4949447;29;20075;-67
2022/01/03 08:48:39;;;;;;;15.77;2.58;;;9.30;96.10;;;;;;4947807;29;20122;-67
2022/01/03 08:51:05;;;;;;;18.83;3.40;;;9.30;95.80;;;;;;4950777;29;20043;-67
2022/01/03 08:53:31;;;;;;;29.63;4.93;;;9.30;96.00;;;;;;4949852;29;20402;-67
2022/01/03 08:55:57;;;;;;;32.75;5.40;;;9.30;96.00;;;;;;4932954;29;20493;-67
2022/01/03 08:58:24;;;;;;;29.48;3.97;;;9.30;95.80;;;;;;4950095;29;20043;-66
2022/01/03 09:00:51;;;;;;;25.50;4.10;;;9.30;95.30;;;;;;4936413;29;20130;-67
2022/01/03 09:03:18;;;;;;;27.85;4.20;;;9.40;95.30;;;;;;4949072;29;20130;-67
2022/01/03 09:05:44;;;;;;;26.92;5.65;;;9.40;95.10;;;;;;4929101;29;20049;-67
2022/01/03 09:08:10;;;;;;;27.58;3.65;;;9.50;95.50;;;;;;4942177;28;20379;-67
2022/01/03 09:10:36;;;;;;;29.15;5.80;;;9.50;95.40;;;;;;4948726;29;20051;-67
2022/01/03 09:13:03;;;;;;;33.60;4.32;;;9.50;95.30;;;;;;4916879;29;20111;-67
2022/01/03 09:15:29;;;;;;;28.13;4.40;;;9.50;95.10;;;;;;4932420;29;20114;-67
2022/01/03 09:17:54;;;;;;;36.92;5.63;;;9.50;95.10;;;;;;4948198;29;20442;-67
2022/01/03 09:20:21;;;;;;;37.55;5.25;;;9.50;94.90;;;;;;4932449;29;20055;-67
2022/01/03 09:22:50;;;;;;;11.90;2.70;;;9.50;95.00;;;;;;4927110;29;20334;-67
2022/01/03 09:30:35;;;;;;;;;;;9.50;95.20;;;;;;4948889;29;20043;-67
2022/01/03 09:33:01;;;;;;;18.08;3.35;;;9.50;95.00;;;;;;4948925;28;20391;-67
2022/01/03 09:35:27;;;;;;;27.45;3.60;;;9.50;95.10;;;;;;4946833;28;20502;-67
2022/01/03 09:37:53;;;;;;;32.42;3.95;;;9.50;94.70;;;;;;4945998;29;20069;-67
2022/01/03 09:40:19;;;;;;;30.83;4.03;;;9.50;94.80;;;;;;4929258;29;20151;-66
2022/01/03 09:42:49;;;;;;;31.17;4.35;;;9.50;94.50;;;;;;4915533;29;20134;-67
2022/01/03 09:45:15;;;;;;;27.80;5.38;;;9.60;94.10;;;;;;4929357;29;20095;-68
2022/01/03 09:47:44;;;;;;;30.27;4.32;;;9.60;94.20;;;;;;4947074;29;20055;-66
2022/01/03 09:50:13;;;;;;;48.85;5.40;;;9.60;94.40;;;;;;4929053;29;20043;-67
2022/01/03 09:52:42;;;;;;;9.05;1.23;;;9.60;94.60;;;;;;4946651;29;20479;-67
2022/01/03 09:55:08;;;;;;;33.88;5.55;;;9.60;94.50;;;;;;4945997;28;20358;-67
2022/01/03 09:57:35;;;;;;;6.20;1.15;;;9.70;94.50;;;;;;4943097;29;20051;-66
2022/01/03 10:00:01;;;;;;;17.00;2.60;;;9.70;93.90;;;;;;4936975;29;20043;-66
2022/01/03 10:02:27;;;;;;;41.05;5.82;;;9.70;93.50;;;;;;4932667;29;20095;-66
2022/01/03 10:04:53;;;;;;;15.55;2.05;;;9.70;93.60;;;;;;4946955;29;20051;-67
2022/01/03 10:07:21;;;;;;;20.23;2.80;;;9.80;93.30;;;;;;4941327;29;20054;-67
2022/01/03 10:09:47;;;;;;;29.20;3.45;;;9.80;93.40;;;;;;4946825;29;20482;-67
2022/01/03 10:12:15;;;;;;;35.95;4.97;;;9.80;93.70;;;;;;4947504;29;20067;-67
2022/01/03 10:14:42;;;;;;;33.17;4.43;;;9.80;93.70;;;;;;4928963;29;20047;-67
2022/01/03 10:17:10;;;;;;;23.65;3.28;;;9.80;93.60;;;;;;4930826;29;20672;-67
2022/01/03 10:19:57;;;;;;;30.40;5.95;;;9.80;93.80;;;;;;4944638;29;20097;-67
2022/01/03 10:22:26;;;;;;;26.75;3.40;;;9.80;93.20;;;;;;4946739;29;20103;-67
2022/01/03 10:24:52;;;;;;;8.23;1.17;;;9.90;93.20;;;;;;4930077;29;20894;-67
2022/01/03 10:27:19;;;;;;;34.53;4.00;;;9.90;93.30;;;;;;4926474;29;20054;-66
2022/01/03 10:30:04;;;;;;;16.60;2.22;;;9.90;93.40;;;;;;4945896;29;20082;-68
2022/01/03 10:32:31;;;;;;;26.33;3.40;;;10.00;92.80;;;;;;4945898;29;20126;-67
2022/01/03 10:34:58;;;;;;;16.85;3.25;;;10.00;92.70;;;;;;4945389;28;20524;-67
2022/01/03 10:37:36;;;;;;;26.73;4.55;;;10.00;92.70;;;;;;4950148;28;20058;-66
2022/01/03 10:40:27;;;;;;;38.17;4.43;;;10.00;93.00;;;;;;4928700;29;20051;-66
2022/01/03 10:42:55;;;;;;;22.15;4.53;;;10.10;93.00;;;;;;4931206;29;20094;-66
2022/01/03 10:45:33;;;;;;;22.20;3.63;;;10.00;93.40;;;;;;4914283;29;20051;-66
2022/01/03 10:48:01;;;;;;;21.67;3.50;;;10.10;92.80;;;;;;4948122;29;20043;-67
2022/01/03 10:50:27;;;;;;;44.00;6.93;;;10.10;92.70;;;;;;4945829;29;20533;-67
2022/01/03 10:52:53;;;;;;;31.27;4.03;;;10.10;92.80;;;;;;4913271;29;20058;-67
2022/01/03 10:55:33;;;;;;;17.05;2.90;;;10.10;92.80;;;;;;4926528;29;20044;-67
2022/01/03 10:58:08;;;;;;;20.73;3.53;;;10.10;92.80;;;;;;4938346;29;20051;-67
2022/01/03 11:00:40;;;;;;;16.50;2.95;;;10.10;92.50;;;;;;4945402;28;20050;-67
2022/01/03 11:03:31;;;;;;;24.73;3.03;;;10.10;92.30;;;;;;4945354;29;20051;-67
2022/01/03 11:06:12;;;;;;;15.15;2.63;;;10.20;92.40;;;;;;4954956;28;20043;-67
2022/01/03 11:11:38;;;;;;;21.50;3.33;;;10.30;92.10;;;;;;4944783;29;20096;-67
2022/01/03 11:14:04;;;;;;;43.40;6.90;;;10.30;91.50;;;;;;4946668;28;20048;-66
2022/01/03 11:16:39;;;;;;;33.28;5.63;;;10.30;92.20;;;;;;4929292;29;20058;-66
2022/01/03 11:19:05;;;;;;;19.98;2.95;;;10.30;91.50;;;;;;4927915;29;20100;-67
2022/01/03 11:21:33;;;;;;;26.63;4.28;;;10.30;91.60;;;;;;4929735;29;20059;-67
2022/01/03 11:24:04;;;;;;;31.48;4.38;;;10.30;91.50;;;;;;4928563;29;20035;-68
2022/01/03 11:26:33;;;;;;;35.50;4.07;;;10.20;91.40;;;;;;4929978;29;20091;-68
2022/01/03 11:29:02;;;;;;;29.95;4.38;;;10.20;91.60;;;;;;4928531;29;20130;-67
2022/01/03 11:31:33;;;;;;;32.57;5.40;;;10.20;91.60;;;;;;4945725;29;20046;-66
2022/01/03 11:33:59;;;;;;;;;;;10.10;91.80;;;;;;4947071;29;20322;-68
2022/01/03 11:36:26;;;;;;;19.45;2.85;;;10.10;92.30;;;;;;4944683;29;20062;-67
2022/01/03 11:38:55;;;;;;;14.80;2.55;;;10.10;92.20;;;;;;4942133;28;20059;-67
2022/01/03 11:41:21;;;;;;;7.15;1.67;;;10.10;92.20;;;;;;4927822;29;20150;-67
2022/01/03 11:43:49;;;;;;;5.05;1.60;;;10.10;92.20;;;;;;4929974;29;20102;-68
2022/01/03 11:46:15;;;;;;;20.33;3.88;;;10.10;92.00;;;;;;4928581;29;20059;-67
2022/01/03 11:48:40;;;;;;;19.38;3.95;;;10.10;92.00;;;;;;4950016;29;20069;-66
2022/01/03 11:51:10;;;;;;;7.15;1.70;;;10.20;91.60;;;;;;4950505;29;20050;-67
2022/01/03 11:53:45;;;;;;;20.95;3.20;;;10.20;91.60;;;;;;4948633;29;20046;-67
2022/01/03 11:56:17;;;;;;;14.65;2.33;;;10.30;91.90;;;;;;4950089;29;20047;-66
2022/01/03 12:04:18;;;;;;;18.67;3.40;;;10.50;91.40;;;;;;4942530;29;20055;-68
2022/01/03 12:06:46;;;;;;;21.83;4.05;;;10.40;90.90;;;;;;4948010;29;20054;-67
2022/01/03 12:09:14;;;;;;;17.40;4.03;;;10.50;90.70;;;;;;4949977;29;20592;-67
2022/01/03 12:11:56;;;;;;;22.10;4.20;;;10.50;91.10;;;;;;4931190;29;20066;-67
2022/01/03 12:14:41;;;;;;;24.20;3.80;;;10.40;90.60;;;;;;4931909;29;20114;-67
2022/01/03 12:17:09;;;;;;;13.57;2.53;;;10.40;90.70;;;;;;4933081;29;20394;-67
2022/01/03 12:19:38;;;;;;;19.85;2.95;;;10.40;91.20;;;;;;4946153;29;20039;-67
2022/01/03 12:22:21;;;;;;;15.40;2.40;;;10.40;90.80;;;;;;4949663;29;20047;-67
2022/01/03 12:24:53;;;;;;;14.40;3.00;;;10.40;91.00;;;;;;4948234;29;20054;-66
2022/01/03 12:27:20;;;;;;;24.40;2.80;;;10.40;90.90;;;;;;4942564;29;20060;-67
2022/01/03 12:30:08;;;;;;;20.23;3.60;;;10.40;91.00;;;;;;4948840;28;20047;-67
2022/01/03 12:32:36;;;;;;;21.55;2.90;;;10.40;90.90;;;;;;4946328;29;20546;-68
2022/01/03 12:35:17;;;;;;;36.28;5.07;;;10.40;91.10;;;;;;4955822;28;20507;-68
2022/01/03 12:37:54;;;;;;;15.88;2.38;;;10.30;91.40;;;;;;4957573;28;20082;-68
2022/01/03 12:40:28;;;;;;;18.20;4.30;;;10.30;91.30;;;;;;4956159;28;20779;-68
2022/01/03 12:43:01;;;;;;;14.30;2.90;;;10.30;91.10;;;;;;4938691;29;20060;-68
2022/01/03 12:45:29;;;;;;;15.23;2.80;;;10.20;91.00;;;;;;4932110;29;20181;-68
2022/01/03 12:48:22;;;;;;;13.40;2.83;;;10.20;91.10;;;;;;4938116;28;20047;-68
2022/01/03 12:50:51;;;;;;;9.15;1.67;;;10.20;91.10;;;;;;4947515;28;20094;-67
2022/01/03 12:53:31;;;;;;;21.65;3.35;;;10.30;90.50;;;;;;4948754;28;20055;-68
2022/01/03 12:56:00;;;;;;;21.08;3.47;;;10.30;90.40;;;;;;4931963;28;20379;-68
2022/01/03 12:58:26;;;;;;;24.65;4.07;;;10.30;91.00;;;;;;4928639;29;20146;-68
2022/01/03 13:00:52;;;;;;;33.30;4.45;;;10.30;91.10;;;;;;4949253;28;20154;-67
2022/01/03 13:03:23;;;;;;;26.02;4.82;;;10.30;91.20;;;;;;4929710;29;20062;-67
2022/01/03 13:06:12;;;;;;;29.00;4.43;;;10.30;90.70;;;;;;4931240;29;20062;-68
2022/01/03 13:08:48;;;;;;;18.13;2.95;;;10.30;90.80;;;;;;4947115;28;20085;-68
2022/01/03 13:11:21;;;;;;;18.33;3.05;;;10.30;91.00;;;;;;4953244;28;20062;-68
2022/01/03 13:13:51;;;;;;;21.15;3.60;;;10.20;90.70;;;;;;4945743;28;20393;-68
2022/01/03 13:16:21;;;;;;;28.92;4.13;;;10.20;90.20;;;;;;4945553;28;20093;-68
2022/01/03 13:18:50;;;;;;;;;;;10.20;91.30;;;;;;4956696;28;20087;-68